This is the latest recevied weather packets stored in our database for station/object DL4MGC-10. If no packets are shown the sender has not sent any weather packets the latest 10 day(s).
| Time | Temp. | Humidity | Pressure | Rain* | Wind** | Luminosity | Snow |
|---|---|---|---|---|---|---|---|
| 1787916376 | 23.89° C | 78% | 1014.5 hPa | - | - | - | - |
| 1787915475 | 25° C | 78% | 1014.2 hPa | - | - | - | - |
| 1787914575 | 24.44° C | 80% | 1013.8 hPa | - | - | - | - |
| 1787913675 | 23.89° C | 83% | 1014.8 hPa | - | - | - | - |
| 1787912775 | 25° C | 82% | 1014.8 hPa | - | - | - | - |
| 1787911874 | 23.89° C | 92% | 1015.1 hPa | - | - | - | - |
| 1787910974 | 22.78° C | 94% | 1015.4 hPa | - | - | - | - |
| 1787910074 | 23.89° C | 85% | 1014.5 hPa | - | - | - | - |
| 1787909174 | 25° C | 82% | 1012.2 hPa | - | - | - | - |
| 1787908274 | 25° C | 80% | 1010.3 hPa | - | - | - | - |
| 1787907374 | 25.56° C | 79% | 1010.4 hPa | - | - | - | - |
| 1787906474 | 26.67° C | 77% | 1010.2 hPa | - | - | - | - |
| 1787905574 | 25.56° C | 80% | 1010.2 hPa | - | - | - | - |
| 1787904674 | 25.56° C | 80% | 1010.5 hPa | - | - | - | - |
| 1787903773 | 25° C | 80% | 1011.3 hPa | - | - | - | - |
| 1787902873 | 24.44° C | 82% | 1011.8 hPa | - | - | - | - |
| 1787901973 | 25° C | 81% | 1011.7 hPa | - | - | - | - |
| 1787901073 | 24.44° C | 84% | 1011.5 hPa | - | - | - | - |
| 1787900173 | 22.78° C | 89% | 1011.4 hPa | - | - | - | - |
| 1787899273 | 21.11° C | 94% | 1011.3 hPa | - | - | - | - |
| 1787898373 | 21.11° C | 93% | 1011.5 hPa | - | - | - | - |
| 1787897473 | 21.67° C | 92% | 1011.8 hPa | - | - | - | - |
| 1787896573 | 21.67° C | 93% | 1012.1 hPa | - | - | - | - |
| 1787895672 | 21.67° C | 92% | 1011.9 hPa | - | - | - | - |
| 1787894772 | 20.56° C | 98% | 1012.4 hPa | - | - | - | - |
* Rain since midnight (hover to see other rain measurements)
** Current wind speed in m/s (hover to see current wind gust speed)